Portada
METAR-TAF:

METAR-TAF

Aeroports :

Gibraltar, Gibraltar

latitud: 36-09N, longitud: 005-21W, altitud: 5 m

Observació

L'informe es va fer fa 24 minuts, a les 14:50 UTC
Vent 9 kt del Est/Nord-Est
Temperatura 17°C
Humitat 82%
Pressió 1028 hPa
Visibilitat: 7000 m
Núvols disperses a una alçada de 900 ft
Cel ennuvolat a una alçada de 2000 ft
calitja

METAR: LXGB 181450Z 06009KT 7000 HZ SCT009 BKN020 17/14 Q1028 TEMPO 8000 HZ FEW010 BKN020

Hora: 16:14 (15:14 UTC)

Pronòstic

L'informe es va fer fa 1 hora i 34 minuts, a les 13:40 UTC
Pronòstic vàlid del 18 a les 15 UTC al 18 a les 23 UTC
Vent 11 kt del Est
Visibilitat: 7000 m
Cel ennuvolat a una alçada de 1000 ft
calitja
Temporalment
l' 18 a les 15 UTC al 18 a les 23 UTC
Visibilitat 10 km o més
Cel ennuvolat a una alçada de 1800 ft

TAF: LXGB 181340Z 1815/1823 09011KT 7000 HZ BKN010 TEMPO 1815/1823 9999 NSW BKN018

Observacions i pronòstics meteorològics de més de 4000 aeroports (METAR i TAF).

Les estacions disponibles són els punts grocs i vermells al mapa.

Posi el ratolí al punt desitjat per veure el nom de l'estació.

Feu clic per veure les observacions i els pronòstics meteorològics.

Per canviar el mapa: feu clic els botons verds amb una creu de color negre per apropar; al botó verd amb un guió per allunyar la imatge; o en les fletxes verdes per a mapes adjacents.


METAR-TAF: